CheckWX is a tool to help pilots better visualize weather data.  It is not intended as a substitute for an official pre-flight weather briefing.

09:50:30 UTC

12N METAR
Aeroflex-Andover Airport
Andover, New Jersey, USA
Current

57 mins ago

K12N 140854Z AUTO 03008KT 05/04 A2962 RMK AO1 SLP037 P0005 60015 T00500044 58059
Observed
Dec-14 @ 08:54 UTC
Wind
  • 030° at 8 KTS
Visibility
Temperature
C / 41°F
Dewpoint
C / 39°F
Humidity
93%
Altimeter
29.62" Hg
Pressure
1003.02 hPa
Current Rain
0.05"
Previous

2 hours ago

K12N 140754Z AUTO VRB05KT 04/04 A2969 RMK AO1 SLP061 P0007 T00440039
Observed
Dec-14 @ 07:54 UTC
Wind
  • Variable at 5 KTS
Visibility
Temperature
C / 39°F
Dewpoint
C / 39°F
Humidity
100%
Altimeter
29.69" Hg
Pressure
1005.42 hPa
Current Rain
0.07"
Previous

3 hours ago

K12N 140654Z AUTO 03006KT 04/03 A2975 RMK AO1 SLP082 P0003 T00390033
Observed
Dec-14 @ 06:54 UTC
Wind
  • 030° at 6 KTS
Visibility
Temperature
C / 39°F
Dewpoint
C / 37°F
Humidity
93%
Altimeter
29.75" Hg
Pressure
1007.42 hPa
Current Rain
0.03"